sensor_id;sensor_type;location;lat;lon;timestamp;P1;durP1;ratioP1;P2;durP2;ratioP2
23282;SDS011;11810;51.178;3.878;2022-08-25T00:01:27;10.18;;;7.53;;
23282;SDS011;11810;51.178;3.878;2022-08-25T00:03:56;11.07;;;8.60;;
23282;SDS011;11810;51.178;3.878;2022-08-25T00:06:23;10.57;;;9.48;;
23282;SDS011;11810;51.178;3.878;2022-08-25T00:08:50;9.73;;;8.35;;
23282;SDS011;11810;51.178;3.878;2022-08-25T00:11:18;10.02;;;7.28;;
23282;SDS011;11810;51.178;3.878;2022-08-25T00:13:47;8.60;;;7.78;;
23282;SDS011;11810;51.178;3.878;2022-08-25T00:16:22;8.43;;;7.63;;
23282;SDS011;11810;51.178;3.878;2022-08-25T00:18:52;7.72;;;6.75;;
23282;SDS011;11810;51.178;3.878;2022-08-25T00:21:21;9.05;;;6.85;;
23282;SDS011;11810;51.178;3.878;2022-08-25T00:23:48;11.63;;;8.70;;
23282;SDS011;11810;51.178;3.878;2022-08-25T00:26:15;9.05;;;8.07;;
23282;SDS011;11810;51.178;3.878;2022-08-25T00:28:41;11.38;;;10.20;;
23282;SDS011;11810;51.178;3.878;2022-08-25T00:31:12;12.02;;;9.50;;
23282;SDS011;11810;51.178;3.878;2022-08-25T00:33:41;11.13;;;9.32;;
23282;SDS011;11810;51.178;3.878;2022-08-25T00:36:08;13.38;;;11.90;;
23282;SDS011;11810;51.178;3.878;2022-08-25T00:38:37;9.50;;;8.50;;
23282;SDS011;11810;51.178;3.878;2022-08-25T00:41:04;14.32;;;12.10;;
23282;SDS011;11810;51.178;3.878;2022-08-25T00:46:06;12.50;;;8.93;;
23282;SDS011;11810;51.178;3.878;2022-08-25T00:48:33;13.57;;;11.77;;
23282;SDS011;11810;51.178;3.878;2022-08-25T00:51:00;11.80;;;10.18;;
23282;SDS011;11810;51.178;3.878;2022-08-25T00:53:28;11.73;;;10.63;;
23282;SDS011;11810;51.178;3.878;2022-08-25T00:55:55;11.13;;;9.55;;
23282;SDS011;11810;51.178;3.878;2022-08-25T00:58:24;11.32;;;10.23;;
23282;SDS011;11810;51.178;3.878;2022-08-25T01:00:52;10.95;;;9.70;;
23282;SDS011;11810;51.178;3.878;2022-08-25T01:03:20;11.38;;;10.05;;
23282;SDS011;11810;51.178;3.878;2022-08-25T01:05:48;11.18;;;10.02;;
23282;SDS011;11810;51.178;3.878;2022-08-25T01:08:14;10.85;;;9.68;;
23282;SDS011;11810;51.178;3.878;2022-08-25T01:10:42;10.70;;;9.60;;
23282;SDS011;11810;51.178;3.878;2022-08-25T01:13:21;17.95;;;10.48;;
23282;SDS011;11810;51.178;3.878;2022-08-25T01:15:53;12.60;;;10.35;;
23282;SDS011;11810;51.178;3.878;2022-08-25T01:18:22;11.10;;;10.00;;
23282;SDS011;11810;51.178;3.878;2022-08-25T01:20:49;10.55;;;9.45;;
23282;SDS011;11810;51.178;3.878;2022-08-25T01:23:23;11.25;;;10.15;;
23282;SDS011;11810;51.178;3.878;2022-08-25T01:28:35;9.90;;;8.90;;
23282;SDS011;11810;51.178;3.878;2022-08-25T01:31:02;11.30;;;10.20;;
23282;SDS011;11810;51.178;3.878;2022-08-25T01:33:29;13.55;;;10.23;;
23282;SDS011;11810;51.178;3.878;2022-08-25T01:35:55;11.02;;;8.68;;
23282;SDS011;11810;51.178;3.878;2022-08-25T01:38:21;11.68;;;10.07;;
23282;SDS011;11810;51.178;3.878;2022-08-25T01:40:47;16.50;;;11.43;;
23282;SDS011;11810;51.178;3.878;2022-08-25T01:45:40;12.13;;;10.70;;
23282;SDS011;11810;51.178;3.878;2022-08-25T01:48:09;12.60;;;11.10;;
23282;SDS011;11810;51.178;3.878;2022-08-25T01:50:35;12.20;;;10.65;;
23282;SDS011;11810;51.178;3.878;2022-08-25T01:53:13;20.08;;;14.90;;
23282;SDS011;11810;51.178;3.878;2022-08-25T01:55:46;20.30;;;13.05;;
23282;SDS011;11810;51.178;3.878;2022-08-25T01:58:24;16.88;;;11.65;;
23282;SDS011;11810;51.178;3.878;2022-08-25T02:00:52;12.98;;;11.15;;
23282;SDS011;11810;51.178;3.878;2022-08-25T02:03:21;14.13;;;11.02;;
23282;SDS011;11810;51.178;3.878;2022-08-25T02:05:48;13.77;;;11.57;;
23282;SDS011;11810;51.178;3.878;2022-08-25T02:08:14;14.10;;;10.93;;
23282;SDS011;11810;51.178;3.878;2022-08-25T02:10:41;15.38;;;11.32;;
23282;SDS011;11810;51.178;3.878;2022-08-25T02:13:08;13.95;;;12.52;;
23282;SDS011;11810;51.178;3.878;2022-08-25T02:15:38;12.00;;;10.80;;
23282;SDS011;11810;51.178;3.878;2022-08-25T02:18:10;13.82;;;12.25;;
23282;SDS011;11810;51.178;3.878;2022-08-25T02:20:36;18.17;;;12.13;;
23282;SDS011;11810;51.178;3.878;2022-08-25T02:23:03;13.82;;;10.95;;
23282;SDS011;11810;51.178;3.878;2022-08-25T02:25:29;12.02;;;10.88;;
23282;SDS011;11810;51.178;3.878;2022-08-25T02:27:56;26.42;;;18.70;;
23282;SDS011;11810;51.178;3.878;2022-08-25T02:30:22;15.65;;;12.95;;
23282;SDS011;11810;51.178;3.878;2022-08-25T02:32:48;16.65;;;12.10;;
23282;SDS011;11810;51.178;3.878;2022-08-25T02:35:15;17.25;;;14.07;;
23282;SDS011;11810;51.178;3.878;2022-08-25T02:37:41;16.50;;;13.32;;
23282;SDS011;11810;51.178;3.878;2022-08-25T02:40:07;15.88;;;12.90;;
23282;SDS011;11810;51.178;3.878;2022-08-25T02:42:33;15.60;;;14.00;;
23282;SDS011;11810;51.178;3.878;2022-08-25T02:44:59;13.68;;;12.13;;
23282;SDS011;11810;51.178;3.878;2022-08-25T02:47:25;13.82;;;12.55;;
23282;SDS011;11810;51.178;3.878;2022-08-25T02:49:52;14.55;;;12.55;;
23282;SDS011;11810;51.178;3.878;2022-08-25T02:52:18;14.73;;;13.05;;
23282;SDS011;11810;51.178;3.878;2022-08-25T02:54:44;16.67;;;11.82;;
23282;SDS011;11810;51.178;3.878;2022-08-25T02:57:10;14.32;;;12.93;;
23282;SDS011;11810;51.178;3.878;2022-08-25T02:59:36;15.27;;;13.57;;
23282;SDS011;11810;51.178;3.878;2022-08-25T03:02:03;20.20;;;13.65;;
23282;SDS011;11810;51.178;3.878;2022-08-25T03:04:30;15.73;;;14.02;;
23282;SDS011;11810;51.178;3.878;2022-08-25T03:06:56;15.82;;;14.15;;
23282;SDS011;11810;51.178;3.878;2022-08-25T03:09:23;18.58;;;16.02;;
23282;SDS011;11810;51.178;3.878;2022-08-25T03:11:51;14.73;;;13.13;;
23282;SDS011;11810;51.178;3.878;2022-08-25T03:14:17;14.95;;;13.30;;
23282;SDS011;11810;51.178;3.878;2022-08-25T03:16:43;13.98;;;12.43;;
23282;SDS011;11810;51.178;3.878;2022-08-25T03:19:09;16.35;;;12.45;;
23282;SDS011;11810;51.178;3.878;2022-08-25T03:21:35;16.27;;;12.60;;
23282;SDS011;11810;51.178;3.878;2022-08-25T03:24:03;13.80;;;12.45;;
23282;SDS011;11810;51.178;3.878;2022-08-25T03:26:29;16.83;;;12.63;;
23282;SDS011;11810;51.178;3.878;2022-08-25T03:29:14;13.73;;;12.40;;
23282;SDS011;11810;51.178;3.878;2022-08-25T03:31:42;14.13;;;12.32;;
23282;SDS011;11810;51.178;3.878;2022-08-25T03:34:10;15.18;;;13.55;;
23282;SDS011;11810;51.178;3.878;2022-08-25T03:36:37;15.38;;;12.13;;
23282;SDS011;11810;51.178;3.878;2022-08-25T03:39:03;14.15;;;11.52;;
23282;SDS011;11810;51.178;3.878;2022-08-25T03:41:31;14.45;;;12.10;;
23282;SDS011;11810;51.178;3.878;2022-08-25T03:43:58;15.55;;;11.65;;
23282;SDS011;11810;51.178;3.878;2022-08-25T03:46:30;13.40;;;12.00;;
23282;SDS011;11810;51.178;3.878;2022-08-25T03:49:00;14.70;;;11.55;;
23282;SDS011;11810;51.178;3.878;2022-08-25T03:51:36;13.63;;;11.82;;
23282;SDS011;11810;51.178;3.878;2022-08-25T03:54:07;13.77;;;12.38;;
23282;SDS011;11810;51.178;3.878;2022-08-25T03:56:34;14.75;;;11.70;;
23282;SDS011;11810;51.178;3.878;2022-08-25T03:59:01;16.67;;;12.30;;
23282;SDS011;11810;51.178;3.878;2022-08-25T04:01:27;17.23;;;15.10;;
23282;SDS011;11810;51.178;3.878;2022-08-25T04:03:54;18.02;;;12.98;;
23282;SDS011;11810;51.178;3.878;2022-08-25T04:06:20;13.35;;;11.95;;
23282;SDS011;11810;51.178;3.878;2022-08-25T04:08:47;17.30;;;15.48;;
23282;SDS011;11810;51.178;3.878;2022-08-25T04:11:17;16.45;;;13.27;;
23282;SDS011;11810;51.178;3.878;2022-08-25T04:13:45;18.80;;;14.55;;
23282;SDS011;11810;51.178;3.878;2022-08-25T04:16:12;15.25;;;13.43;;
23282;SDS011;11810;51.178;3.878;2022-08-25T04:18:40;14.13;;;12.65;;
23282;SDS011;11810;51.178;3.878;2022-08-25T04:21:07;15.45;;;13.88;;
23282;SDS011;11810;51.178;3.878;2022-08-25T04:23:36;12.73;;;11.38;;
23282;SDS011;11810;51.178;3.878;2022-08-25T04:26:09;13.32;;;11.50;;
23282;SDS011;11810;51.178;3.878;2022-08-25T04:28:37;18.00;;;13.68;;
23282;SDS011;11810;51.178;3.878;2022-08-25T04:31:07;18.77;;;15.73;;
23282;SDS011;11810;51.178;3.878;2022-08-25T04:33:35;17.83;;;13.85;;
23282;SDS011;11810;51.178;3.878;2022-08-25T04:36:03;16.70;;;14.52;;
23282;SDS011;11810;51.178;3.878;2022-08-25T04:38:30;17.95;;;14.55;;
23282;SDS011;11810;51.178;3.878;2022-08-25T04:41:00;17.05;;;15.05;;
23282;SDS011;11810;51.178;3.878;2022-08-25T04:43:29;16.15;;;14.43;;
23282;SDS011;11810;51.178;3.878;2022-08-25T04:45:56;14.45;;;12.85;;
23282;SDS011;11810;51.178;3.878;2022-08-25T04:48:22;13.38;;;11.82;;
23282;SDS011;11810;51.178;3.878;2022-08-25T04:50:50;18.17;;;14.30;;
23282;SDS011;11810;51.178;3.878;2022-08-25T04:53:16;23.15;;;17.60;;
23282;SDS011;11810;51.178;3.878;2022-08-25T04:55:43;20.38;;;14.82;;
23282;SDS011;11810;51.178;3.878;2022-08-25T04:58:11;18.92;;;15.38;;
23282;SDS011;11810;51.178;3.878;2022-08-25T05:00:38;18.75;;;16.85;;
23282;SDS011;11810;51.178;3.878;2022-08-25T05:03:05;21.17;;;18.70;;
23282;SDS011;11810;51.178;3.878;2022-08-25T05:05:35;25.35;;;18.25;;
23282;SDS011;11810;51.178;3.878;2022-08-25T05:08:02;23.73;;;18.85;;
23282;SDS011;11810;51.178;3.878;2022-08-25T05:10:30;25.52;;;18.40;;
23282;SDS011;11810;51.178;3.878;2022-08-25T05:12:56;21.80;;;17.30;;
23282;SDS011;11810;51.178;3.878;2022-08-25T05:15:22;17.42;;;15.63;;
23282;SDS011;11810;51.178;3.878;2022-08-25T05:18:08;20.00;;;15.73;;
23282;SDS011;11810;51.178;3.878;2022-08-25T05:20:37;17.75;;;15.52;;
23282;SDS011;11810;51.178;3.878;2022-08-25T05:23:03;17.52;;;14.45;;
23282;SDS011;11810;51.178;3.878;2022-08-25T05:25:29;24.15;;;15.13;;
23282;SDS011;11810;51.178;3.878;2022-08-25T05:27:56;20.13;;;14.93;;
23282;SDS011;11810;51.178;3.878;2022-08-25T05:30:22;21.88;;;14.75;;
23282;SDS011;11810;51.178;3.878;2022-08-25T05:32:48;18.17;;;16.27;;
23282;SDS011;11810;51.178;3.878;2022-08-25T05:35:14;17.85;;;14.35;;
23282;SDS011;11810;51.178;3.878;2022-08-25T05:37:40;17.90;;;14.70;;
23282;SDS011;11810;51.178;3.878;2022-08-25T05:40:07;19.35;;;14.38;;
23282;SDS011;11810;51.178;3.878;2022-08-25T05:42:34;17.00;;;14.13;;
23282;SDS011;11810;51.178;3.878;2022-08-25T05:45:02;17.40;;;14.43;;
23282;SDS011;11810;51.178;3.878;2022-08-25T05:47:28;18.13;;;14.95;;
23282;SDS011;11810;51.178;3.878;2022-08-25T05:49:54;19.65;;;16.98;;
23282;SDS011;11810;51.178;3.878;2022-08-25T05:52:20;16.08;;;14.40;;
23282;SDS011;11810;51.178;3.878;2022-08-25T05:54:46;16.15;;;14.40;;
23282;SDS011;11810;51.178;3.878;2022-08-25T05:57:12;17.13;;;14.68;;
23282;SDS011;11810;51.178;3.878;2022-08-25T05:59:39;21.20;;;16.67;;
23282;SDS011;11810;51.178;3.878;2022-08-25T06:02:05;17.27;;;15.48;;
23282;SDS011;11810;51.178;3.878;2022-08-25T06:04:49;18.90;;;16.63;;
23282;SDS011;11810;51.178;3.878;2022-08-25T06:07:15;21.27;;;16.88;;
23282;SDS011;11810;51.178;3.878;2022-08-25T06:09:41;20.70;;;16.85;;
23282;SDS011;11810;51.178;3.878;2022-08-25T06:12:10;21.15;;;17.15;;
23282;SDS011;11810;51.178;3.878;2022-08-25T06:14:36;22.65;;;15.13;;
23282;SDS011;11810;51.178;3.878;2022-08-25T06:17:02;20.20;;;14.68;;
23282;SDS011;11810;51.178;3.878;2022-08-25T06:19:29;17.40;;;15.25;;
23282;SDS011;11810;51.178;3.878;2022-08-25T06:21:55;18.83;;;15.15;;
23282;SDS011;11810;51.178;3.878;2022-08-25T06:24:23;21.13;;;15.25;;
23282;SDS011;11810;51.178;3.878;2022-08-25T06:26:50;19.85;;;13.75;;
23282;SDS011;11810;51.178;3.878;2022-08-25T06:29:17;15.65;;;13.68;;
23282;SDS011;11810;51.178;3.878;2022-08-25T06:31:43;20.00;;;13.98;;
23282;SDS011;11810;51.178;3.878;2022-08-25T06:34:10;15.25;;;13.65;;
23282;SDS011;11810;51.178;3.878;2022-08-25T06:36:38;15.77;;;12.65;;
23282;SDS011;11810;51.178;3.878;2022-08-25T06:39:04;15.13;;;12.35;;
23282;SDS011;11810;51.178;3.878;2022-08-25T06:41:30;19.83;;;12.30;;
23282;SDS011;11810;51.178;3.878;2022-08-25T06:43:57;16.70;;;12.65;;
23282;SDS011;11810;51.178;3.878;2022-08-25T06:46:24;18.80;;;12.88;;
23282;SDS011;11810;51.178;3.878;2022-08-25T06:48:52;14.90;;;11.43;;
23282;SDS011;11810;51.178;3.878;2022-08-25T06:51:19;18.63;;;12.07;;
23282;SDS011;11810;51.178;3.878;2022-08-25T06:53:47;18.08;;;13.02;;
23282;SDS011;11810;51.178;3.878;2022-08-25T06:56:14;14.80;;;11.70;;
23282;SDS011;11810;51.178;3.878;2022-08-25T06:58:41;21.23;;;12.40;;
23282;SDS011;11810;51.178;3.878;2022-08-25T07:03:46;21.25;;;12.85;;
23282;SDS011;11810;51.178;3.878;2022-08-25T07:06:12;19.10;;;13.00;;
23282;SDS011;11810;51.178;3.878;2022-08-25T07:08:39;19.05;;;12.35;;
23282;SDS011;11810;51.178;3.878;2022-08-25T07:11:08;17.40;;;12.98;;
23282;SDS011;11810;51.178;3.878;2022-08-25T07:13:36;13.75;;;11.30;;
23282;SDS011;11810;51.178;3.878;2022-08-25T07:16:03;15.40;;;12.20;;
23282;SDS011;11810;51.178;3.878;2022-08-25T07:18:30;17.38;;;12.52;;
23282;SDS011;11810;51.178;3.878;2022-08-25T07:20:57;19.73;;;12.13;;
23282;SDS011;11810;51.178;3.878;2022-08-25T07:23:23;16.20;;;12.63;;
23282;SDS011;11810;51.178;3.878;2022-08-25T07:25:50;15.27;;;12.02;;
23282;SDS011;11810;51.178;3.878;2022-08-25T07:28:18;15.52;;;11.52;;
23282;SDS011;11810;51.178;3.878;2022-08-25T07:30:45;17.50;;;11.77;;
23282;SDS011;11810;51.178;3.878;2022-08-25T07:33:11;16.30;;;11.15;;
23282;SDS011;11810;51.178;3.878;2022-08-25T07:35:38;15.98;;;10.55;;
23282;SDS011;11810;51.178;3.878;2022-08-25T07:38:04;15.25;;;9.98;;
23282;SDS011;11810;51.178;3.878;2022-08-25T07:40:33;16.80;;;9.40;;
23282;SDS011;11810;51.178;3.878;2022-08-25T07:43:01;11.45;;;9.30;;
23282;SDS011;11810;51.178;3.878;2022-08-25T07:45:30;15.38;;;8.32;;
23282;SDS011;11810;51.178;3.878;2022-08-25T07:47:58;14.15;;;8.10;;
23282;SDS011;11810;51.178;3.878;2022-08-25T07:50:27;11.50;;;7.03;;
23282;SDS011;11810;51.178;3.878;2022-08-25T07:52:54;11.23;;;6.68;;
23282;SDS011;11810;51.178;3.878;2022-08-25T07:55:22;12.05;;;6.88;;
23282;SDS011;11810;51.178;3.878;2022-08-25T07:57:50;12.23;;;6.95;;
23282;SDS011;11810;51.178;3.878;2022-08-25T08:00:19;13.25;;;6.22;;
23282;SDS011;11810;51.178;3.878;2022-08-25T08:02:45;16.65;;;6.63;;
23282;SDS011;11810;51.178;3.878;2022-08-25T08:05:11;15.35;;;5.68;;
23282;SDS011;11810;51.178;3.878;2022-08-25T08:07:38;9.25;;;5.00;;
23282;SDS011;11810;51.178;3.878;2022-08-25T08:10:05;8.75;;;4.47;;
23282;SDS011;11810;51.178;3.878;2022-08-25T08:12:33;13.70;;;4.90;;
23282;SDS011;11810;51.178;3.878;2022-08-25T08:14:59;13.35;;;4.80;;
23282;SDS011;11810;51.178;3.878;2022-08-25T08:17:26;9.23;;;4.38;;
23282;SDS011;11810;51.178;3.878;2022-08-25T08:19:52;13.68;;;4.80;;
23282;SDS011;11810;51.178;3.878;2022-08-25T08:22:18;8.88;;;4.25;;
23282;SDS011;11810;51.178;3.878;2022-08-25T08:24:44;14.80;;;4.40;;
23282;SDS011;11810;51.178;3.878;2022-08-25T08:27:11;8.70;;;3.60;;
23282;SDS011;11810;51.178;3.878;2022-08-25T08:29:38;9.70;;;3.35;;
23282;SDS011;11810;51.178;3.878;2022-08-25T08:32:08;10.00;;;3.70;;
23282;SDS011;11810;51.178;3.878;2022-08-25T08:34:37;6.30;;;3.50;;
23282;SDS011;11810;51.178;3.878;2022-08-25T08:37:05;10.38;;;2.83;;
23282;SDS011;11810;51.178;3.878;2022-08-25T08:39:31;7.00;;;3.22;;
23282;SDS011;11810;51.178;3.878;2022-08-25T08:42:03;5.20;;;3.05;;
23282;SDS011;11810;51.178;3.878;2022-08-25T08:55:32;7.68;;;2.13;;
23282;SDS011;11810;51.178;3.878;2022-08-25T08:58:06;6.82;;;2.63;;
23282;SDS011;11810;51.178;3.878;2022-08-25T09:00:46;9.00;;;2.20;;
23282;SDS011;11810;51.178;3.878;2022-08-25T09:03:36;5.20;;;2.20;;
23282;SDS011;11810;51.178;3.878;2022-08-25T09:06:04;6.97;;;1.98;;
23282;SDS011;11810;51.178;3.878;2022-08-25T09:08:56;7.90;;;1.98;;
23282;SDS011;11810;51.178;3.878;2022-08-25T09:17:16;9.30;;;2.33;;
23282;SDS011;11810;51.178;3.878;2022-08-25T09:20:02;15.82;;;2.40;;
23282;SDS011;11810;51.178;3.878;2022-08-25T09:33:21;6.90;;;1.98;;
23282;SDS011;11810;51.178;3.878;2022-08-25T09:35:51;15.10;;;2.50;;
23282;SDS011;11810;51.178;3.878;2022-08-25T09:38:18;6.05;;;2.22;;
23282;SDS011;11810;51.178;3.878;2022-08-25T09:40:45;10.23;;;2.47;;
23282;SDS011;11810;51.178;3.878;2022-08-25T09:48:49;6.47;;;1.85;;
23282;SDS011;11810;51.178;3.878;2022-08-25T09:51:36;9.05;;;2.17;;
23282;SDS011;11810;51.178;3.878;2022-08-25T09:59:28;7.15;;;2.20;;
23282;SDS011;11810;51.178;3.878;2022-08-25T10:01:59;6.13;;;1.90;;
23282;SDS011;11810;51.178;3.878;2022-08-25T10:04:31;7.65;;;2.28;;
23282;SDS011;11810;51.178;3.878;2022-08-25T10:07:01;5.43;;;2.10;;
23282;SDS011;11810;51.178;3.878;2022-08-25T10:09:33;5.75;;;1.85;;
23282;SDS011;11810;51.178;3.878;2022-08-25T10:12:18;10.82;;;2.05;;
23282;SDS011;11810;51.178;3.878;2022-08-25T10:14:48;8.88;;;2.17;;
23282;SDS011;11810;51.178;3.878;2022-08-25T10:19:49;5.50;;;1.58;;
23282;SDS011;11810;51.178;3.878;2022-08-25T10:22:22;3.70;;;2.10;;
23282;SDS011;11810;51.178;3.878;2022-08-25T10:24:56;5.88;;;1.80;;
23282;SDS011;11810;51.178;3.878;2022-08-25T10:27:29;6.10;;;1.80;;
23282;SDS011;11810;51.178;3.878;2022-08-25T10:50:23;10.60;;;1.95;;
23282;SDS011;11810;51.178;3.878;2022-08-25T10:56:02;7.70;;;1.60;;
23282;SDS011;11810;51.178;3.878;2022-08-25T11:09:32;7.13;;;1.35;;
23282;SDS011;11810;51.178;3.878;2022-08-25T11:12:05;7.93;;;1.55;;
23282;SDS011;11810;51.178;3.878;2022-08-25T11:14:50;4.37;;;1.40;;
23282;SDS011;11810;51.178;3.878;2022-08-25T11:19:56;2.10;;;1.48;;
23282;SDS011;11810;51.178;3.878;2022-08-25T11:25:27;5.07;;;1.50;;
23282;SDS011;11810;51.178;3.878;2022-08-25T11:28:09;3.63;;;1.50;;
23282;SDS011;11810;51.178;3.878;2022-08-25T11:30:55;9.60;;;1.70;;
23282;SDS011;11810;51.178;3.878;2022-08-25T11:33:23;8.15;;;1.50;;
23282;SDS011;11810;51.178;3.878;2022-08-25T11:36:11;4.90;;;1.55;;
23282;SDS011;11810;51.178;3.878;2022-08-25T11:38:46;6.90;;;1.70;;
23282;SDS011;11810;51.178;3.878;2022-08-25T11:41:45;4.97;;;1.52;;
23282;SDS011;11810;51.178;3.878;2022-08-25T11:52:45;16.27;;;7.50;;
23282;SDS011;11810;51.178;3.878;2022-08-25T11:57:45;18.23;;;11.02;;
23282;SDS011;11810;51.178;3.878;2022-08-25T12:08:50;21.15;;;10.70;;
23282;SDS011;11810;51.178;3.878;2022-08-25T12:11:44;23.17;;;14.00;;
23282;SDS011;11810;51.178;3.878;2022-08-25T12:29:50;19.75;;;11.98;;
23282;SDS011;11810;51.178;3.878;2022-08-25T12:37:34;18.92;;;10.85;;
23282;SDS011;11810;51.178;3.878;2022-08-25T12:40:53;19.90;;;12.93;;
23282;SDS011;11810;51.178;3.878;2022-08-25T12:43:31;19.95;;;15.00;;
23282;SDS011;11810;51.178;3.878;2022-08-25T12:51:55;18.48;;;13.65;;
23282;SDS011;11810;51.178;3.878;2022-08-25T13:00:04;18.98;;;13.60;;
23282;SDS011;11810;51.178;3.878;2022-08-25T13:06:04;17.08;;;12.63;;
23282;SDS011;11810;51.178;3.878;2022-08-25T13:11:03;19.10;;;11.63;;
23282;SDS011;11810;51.178;3.878;2022-08-25T13:13:51;15.73;;;13.52;;
23282;SDS011;11810;51.178;3.878;2022-08-25T13:16:50;20.25;;;13.30;;
23282;SDS011;11810;51.178;3.878;2022-08-25T13:19:18;16.92;;;11.98;;
23282;SDS011;11810;51.178;3.878;2022-08-25T13:21:45;14.93;;;10.43;;
23282;SDS011;11810;51.178;3.878;2022-08-25T13:24:32;16.02;;;8.50;;
23282;SDS011;11810;51.178;3.878;2022-08-25T13:27:02;15.90;;;8.82;;
23282;SDS011;11810;51.178;3.878;2022-08-25T13:29:31;14.95;;;9.45;;
23282;SDS011;11810;51.178;3.878;2022-08-25T13:32:00;14.60;;;9.05;;
23282;SDS011;11810;51.178;3.878;2022-08-25T13:34:29;12.27;;;10.85;;
23282;SDS011;11810;51.178;3.878;2022-08-25T13:37:02;13.23;;;9.73;;
23282;SDS011;11810;51.178;3.878;2022-08-25T13:39:49;11.48;;;9.10;;
23282;SDS011;11810;51.178;3.878;2022-08-25T13:42:15;10.25;;;8.68;;
23282;SDS011;11810;51.178;3.878;2022-08-25T13:44:41;13.10;;;9.13;;
23282;SDS011;11810;51.178;3.878;2022-08-25T13:47:09;14.25;;;10.48;;
23282;SDS011;11810;51.178;3.878;2022-08-25T13:50:06;16.73;;;11.00;;
23282;SDS011;11810;51.178;3.878;2022-08-25T13:55:51;17.77;;;11.50;;
23282;SDS011;11810;51.178;3.878;2022-08-25T13:58:21;20.58;;;13.80;;
23282;SDS011;11810;51.178;3.878;2022-08-25T14:01:05;20.42;;;15.65;;
23282;SDS011;11810;51.178;3.878;2022-08-25T14:03:42;19.85;;;13.23;;
23282;SDS011;11810;51.178;3.878;2022-08-25T14:11:13;24.92;;;22.17;;
23282;SDS011;11810;51.178;3.878;2022-08-25T14:14:04;28.40;;;21.85;;
23282;SDS011;11810;51.178;3.878;2022-08-25T14:16:59;27.17;;;19.05;;
23282;SDS011;11810;51.178;3.878;2022-08-25T14:19:24;27.05;;;20.15;;
23282;SDS011;11810;51.178;3.878;2022-08-25T14:21:50;21.42;;;17.08;;
23282;SDS011;11810;51.178;3.878;2022-08-25T14:24:17;24.85;;;19.65;;
23282;SDS011;11810;51.178;3.878;2022-08-25T14:26:48;27.17;;;20.77;;
23282;SDS011;11810;51.178;3.878;2022-08-25T14:29:15;32.55;;;20.42;;
23282;SDS011;11810;51.178;3.878;2022-08-25T14:31:42;25.35;;;17.52;;
23282;SDS011;11810;51.178;3.878;2022-08-25T14:34:20;26.38;;;18.98;;
23282;SDS011;11810;51.178;3.878;2022-08-25T14:36:49;27.15;;;19.35;;
23282;SDS011;11810;51.178;3.878;2022-08-25T14:39:15;21.63;;;17.90;;
23282;SDS011;11810;51.178;3.878;2022-08-25T14:41:42;27.58;;;15.18;;
23282;SDS011;11810;51.178;3.878;2022-08-25T14:44:10;23.63;;;15.98;;
23282;SDS011;11810;51.178;3.878;2022-08-25T14:46:37;24.58;;;14.63;;
23282;SDS011;11810;51.178;3.878;2022-08-25T14:49:08;30.88;;;13.18;;
23282;SDS011;11810;51.178;3.878;2022-08-25T14:51:37;26.08;;;10.95;;
23282;SDS011;11810;51.178;3.878;2022-08-25T14:54:06;21.77;;;9.65;;
23282;SDS011;11810;51.178;3.878;2022-08-25T14:56:37;15.50;;;8.77;;
23282;SDS011;11810;51.178;3.878;2022-08-25T14:59:04;18.63;;;8.82;;
23282;SDS011;11810;51.178;3.878;2022-08-25T15:01:30;20.98;;;8.38;;
23282;SDS011;11810;51.178;3.878;2022-08-25T15:03:57;17.38;;;7.53;;
23282;SDS011;11810;51.178;3.878;2022-08-25T15:06:27;21.88;;;7.13;;
23282;SDS011;11810;51.178;3.878;2022-08-25T15:08:53;19.13;;;6.75;;
23282;SDS011;11810;51.178;3.878;2022-08-25T15:11:39;16.85;;;7.65;;
23282;SDS011;11810;51.178;3.878;2022-08-25T15:14:10;20.90;;;9.25;;
23282;SDS011;11810;51.178;3.878;2022-08-25T15:16:40;21.75;;;10.45;;
23282;SDS011;11810;51.178;3.878;2022-08-25T15:19:10;22.60;;;9.55;;
23282;SDS011;11810;51.178;3.878;2022-08-25T15:21:41;26.70;;;10.60;;
23282;SDS011;11810;51.178;3.878;2022-08-25T15:24:08;21.65;;;10.25;;
23282;SDS011;11810;51.178;3.878;2022-08-25T15:26:42;26.67;;;12.07;;
23282;SDS011;11810;51.178;3.878;2022-08-25T15:29:11;23.77;;;11.48;;
23282;SDS011;11810;51.178;3.878;2022-08-25T15:31:37;18.05;;;13.20;;
23282;SDS011;11810;51.178;3.878;2022-08-25T15:34:05;22.67;;;13.15;;
23282;SDS011;11810;51.178;3.878;2022-08-25T15:36:31;22.10;;;11.77;;
23282;SDS011;11810;51.178;3.878;2022-08-25T15:38:58;27.40;;;13.10;;
23282;SDS011;11810;51.178;3.878;2022-08-25T15:41:24;22.08;;;13.30;;
23282;SDS011;11810;51.178;3.878;2022-08-25T15:43:50;23.08;;;12.77;;
23282;SDS011;11810;51.178;3.878;2022-08-25T15:46:16;22.60;;;11.77;;
23282;SDS011;11810;51.178;3.878;2022-08-25T15:48:45;26.00;;;12.57;;
23282;SDS011;11810;51.178;3.878;2022-08-25T15:51:11;22.25;;;12.35;;
23282;SDS011;11810;51.178;3.878;2022-08-25T15:53:39;23.15;;;12.70;;
23282;SDS011;11810;51.178;3.878;2022-08-25T15:56:05;20.00;;;12.45;;
23282;SDS011;11810;51.178;3.878;2022-08-25T15:58:32;21.60;;;11.45;;
23282;SDS011;11810;51.178;3.878;2022-08-25T16:00:59;25.85;;;11.23;;
23282;SDS011;11810;51.178;3.878;2022-08-25T16:03:26;30.77;;;13.73;;
23282;SDS011;11810;51.178;3.878;2022-08-25T16:05:52;24.73;;;12.02;;
23282;SDS011;11810;51.178;3.878;2022-08-25T16:08:18;22.17;;;11.90;;
23282;SDS011;11810;51.178;3.878;2022-08-25T16:10:44;26.77;;;13.65;;
23282;SDS011;11810;51.178;3.878;2022-08-25T16:13:10;27.85;;;12.85;;
23282;SDS011;11810;51.178;3.878;2022-08-25T16:15:37;23.13;;;12.20;;
23282;SDS011;11810;51.178;3.878;2022-08-25T16:18:03;22.15;;;10.77;;
23282;SDS011;11810;51.178;3.878;2022-08-25T16:20:30;28.00;;;11.27;;
23282;SDS011;11810;51.178;3.878;2022-08-25T16:22:58;25.98;;;10.07;;
23282;SDS011;11810;51.178;3.878;2022-08-25T16:25:26;29.67;;;10.82;;
23282;SDS011;11810;51.178;3.878;2022-08-25T16:27:52;31.48;;;12.55;;
23282;SDS011;11810;51.178;3.878;2022-08-25T16:30:18;33.30;;;12.10;;
23282;SDS011;11810;51.178;3.878;2022-08-25T16:32:45;21.85;;;10.75;;
23282;SDS011;11810;51.178;3.878;2022-08-25T16:35:11;31.33;;;10.85;;
23282;SDS011;11810;51.178;3.878;2022-08-25T16:37:38;19.85;;;10.30;;
23282;SDS011;11810;51.178;3.878;2022-08-25T16:40:04;25.77;;;9.27;;
23282;SDS011;11810;51.178;3.878;2022-08-25T16:42:31;20.88;;;9.73;;
23282;SDS011;11810;51.178;3.878;2022-08-25T16:44:57;32.63;;;10.38;;
23282;SDS011;11810;51.178;3.878;2022-08-25T16:47:24;22.88;;;9.02;;
23282;SDS011;11810;51.178;3.878;2022-08-25T16:49:49;18.15;;;7.72;;
23282;SDS011;11810;51.178;3.878;2022-08-25T16:52:15;19.33;;;8.25;;
23282;SDS011;11810;51.178;3.878;2022-08-25T16:55:00;32.45;;;7.25;;
23282;SDS011;11810;51.178;3.878;2022-08-25T16:57:39;24.27;;;7.45;;
23282;SDS011;11810;51.178;3.878;2022-08-25T17:00:08;20.27;;;7.22;;
23282;SDS011;11810;51.178;3.878;2022-08-25T17:02:37;19.25;;;7.22;;
23282;SDS011;11810;51.178;3.878;2022-08-25T17:05:04;18.13;;;6.75;;
23282;SDS011;11810;51.178;3.878;2022-08-25T17:07:32;21.50;;;6.85;;
23282;SDS011;11810;51.178;3.878;2022-08-25T17:09:59;15.18;;;6.50;;
23282;SDS011;11810;51.178;3.878;2022-08-25T17:12:26;24.20;;;7.05;;
23282;SDS011;11810;51.178;3.878;2022-08-25T17:14:52;19.95;;;6.70;;
23282;SDS011;11810;51.178;3.878;2022-08-25T17:17:18;26.90;;;6.40;;
23282;SDS011;11810;51.178;3.878;2022-08-25T17:19:45;23.58;;;7.47;;